Time;durP1;ratioP1;P1;durP2;ratioP2;P2;SDS_P1;SDS_P2;PMS_P1;PMS_P2;Temp;Humidity;BMP_temperature;BMP_pressure;BME280_temperature;BME280_humidity;BME280_pressure;Samples;Min_cycle;Max_cycle;Signal;HPM_P1;HPM_P2
2022/01/24 00:01:49;;;;;;;31.45;28.73;;;;;;;;;;5133783;28;20204;-83
2022/01/24 00:04:16;;;;;;;29.33;26.98;;;;;;;;;;5133520;28;20195;-82
2022/01/24 00:06:44;;;;;;;31.40;28.85;;;;;;;;;;5133242;28;20272;-83
2022/01/24 00:09:13;;;;;;;30.98;28.52;;;;;;;;;;5133654;28;20311;-83
2022/01/24 00:11:45;;;;;;;32.03;29.15;;;;;;;;;;5133669;28;20224;-83
2022/01/24 00:17:04;;;;;;;31.85;29.30;;;;;;;;;;5129977;28;20227;-83
2022/01/24 00:27:47;;;;;;;29.85;27.48;;;;;;;;;;5133343;28;20545;-83
2022/01/24 00:30:16;;;;;;;31.13;28.45;;;;;;;;;;5133165;28;20704;-83
2022/01/24 00:32:43;;;;;;;32.40;29.70;;;;;;;;;;5133185;28;20723;-83
2022/01/24 00:35:11;;;;;;;32.13;29.63;;;;;;;;;;5133417;28;20561;-81
2022/01/24 00:37:38;;;;;;;30.63;28.20;;;;;;;;;;5135421;27;20196;-83
2022/01/24 00:40:09;;;;;;;30.30;27.90;;;;;;;;;;5137150;27;20422;-83
2022/01/24 00:42:47;;;;;;;29.92;27.73;;;;;;;;;;5136777;27;20233;-82
2022/01/24 00:45:25;;;;;;;28.77;26.55;;;;;;;;;;5136842;27;20193;-82
2022/01/24 00:48:09;;;;;;;29.88;27.58;;;;;;;;;;5136876;27;20201;-83
2022/01/24 00:53:37;;;;;;;30.17;27.83;;;;;;;;;;5136775;27;20199;-82
2022/01/24 00:56:07;;;;;;;32.17;29.42;;;;;;;;;;5136849;27;20242;-81
2022/01/24 00:58:34;;;;;;;32.17;29.55;;;;;;;;;;5136841;27;20203;-83
2022/01/24 01:01:02;;;;;;;31.15;28.55;;;;;;;;;;5136585;27;20193;-83
2022/01/24 01:03:29;;;;;;;31.45;28.70;;;;;;;;;;5137046;27;20235;-83
2022/01/24 01:06:05;;;;;;;32.10;29.60;;;;;;;;;;5118351;27;20221;-82
2022/01/24 01:19:49;;;;;;;30.97;28.47;;;;;;;;;;5074278;28;20439;-83
2022/01/24 01:22:16;;;;;;;29.15;27.05;;;;;;;;;;5057121;28;20430;-82
2022/01/24 01:24:50;;;;;;;29.92;27.70;;;;;;;;;;5064973;28;20268;-83
2022/01/24 01:27:23;;;;;;;30.15;27.65;;;;;;;;;;5075136;28;20205;-82
2022/01/24 01:29:57;;;;;;;29.20;26.80;;;;;;;;;;5058047;28;20227;-83
2022/01/24 01:32:45;;;;;;;28.77;26.60;;;;;;;;;;5073303;28;20360;-83
2022/01/24 01:54:46;;;;;;;27.08;24.98;;;;;;;;;;5135970;27;20191;-82
2022/01/24 01:57:14;;;;;;;26.63;24.30;;;;;;;;;;5136271;27;20197;-83
2022/01/24 01:59:43;;;;;;;26.30;24.30;;;;;;;;;;5135485;27;20187;-82
2022/01/24 02:02:10;;;;;;;27.67;25.27;;;;;;;;;;5135802;27;20492;-83
2022/01/24 02:04:37;;;;;;;28.65;26.45;;;;;;;;;;5135737;27;20661;-82
2022/01/24 02:07:05;;;;;;;27.83;25.83;;;;;;;;;;5135671;27;20753;-83
2022/01/24 02:09:33;;;;;;;27.17;25.13;;;;;;;;;;5135110;27;20217;-83
2022/01/24 02:12:01;;;;;;;27.75;25.65;;;;;;;;;;5135302;27;20194;-82
2022/01/24 02:14:34;;;;;;;26.55;24.65;;;;;;;;;;5135856;27;20186;-83
2022/01/24 02:17:09;;;;;;;22.65;21.25;;;;;;;;;;5135355;27;20267;-82
2022/01/24 02:19:51;;;;;;;24.53;22.90;;;;;;;;;;5135621;27;20197;-83
2022/01/24 02:25:07;;;;;;;25.60;23.80;;;;;;;;;;5134309;27;20280;-81
2022/01/24 02:27:43;;;;;;;24.23;22.52;;;;;;;;;;5136243;27;20189;-82
2022/01/24 02:30:16;;;;;;;25.90;24.00;;;;;;;;;;5135319;27;20258;-83
2022/01/24 02:32:44;;;;;;;25.20;23.33;;;;;;;;;;5136645;27;20199;-83
2022/01/24 02:35:11;;;;;;;25.80;24.00;;;;;;;;;;5135854;27;20445;-83
2022/01/24 02:37:40;;;;;;;25.38;23.52;;;;;;;;;;5135581;27;20193;-83
2022/01/24 02:40:12;;;;;;;24.00;22.35;;;;;;;;;;5135477;27;20186;-82
2022/01/24 02:48:26;;;;;;;24.25;22.48;;;;;;;;;;5135021;27;20194;-82
2022/01/24 02:53:46;;;;;;;24.00;22.23;;;;;;;;;;5118890;27;20203;-82
2022/01/24 02:56:13;;;;;;;24.77;22.98;;;;;;;;;;5134644;27;20224;-82
2022/01/24 02:58:40;;;;;;;23.67;22.08;;;;;;;;;;5136573;27;20256;-82
2022/01/24 03:01:08;;;;;;;24.05;22.35;;;;;;;;;;5135532;27;20605;-81
2022/01/24 03:03:36;;;;;;;24.48;22.67;;;;;;;;;;5136335;27;20196;-82
2022/01/24 03:06:04;;;;;;;23.50;21.83;;;;;;;;;;5118600;27;20226;-82
2022/01/24 03:08:31;;;;;;;23.92;22.33;;;;;;;;;;5135405;27;20444;-82
2022/01/24 03:11:00;;;;;;;24.73;23.05;;;;;;;;;;5135071;27;20217;-82
2022/01/24 03:13:33;;;;;;;24.20;22.50;;;;;;;;;;5136356;27;20196;-83
2022/01/24 03:16:02;;;;;;;25.73;23.67;;;;;;;;;;5136417;27;20471;-82
2022/01/24 03:18:30;;;;;;;23.95;22.35;;;;;;;;;;5135639;27;20442;-82
2022/01/24 03:21:00;;;;;;;24.23;22.60;;;;;;;;;;5135370;27;20188;-82
2022/01/24 03:23:29;;;;;;;24.20;22.50;;;;;;;;;;5135610;27;20515;-82
2022/01/24 03:25:56;;;;;;;24.00;22.40;;;;;;;;;;5135914;27;20194;-81
2022/01/24 03:28:25;;;;;;;24.13;22.48;;;;;;;;;;5139110;27;20265;-82
2022/01/24 03:30:53;;;;;;;24.35;22.65;;;;;;;;;;5138414;27;20220;-83
2022/01/24 03:33:21;;;;;;;24.25;22.55;;;;;;;;;;5135920;27;20193;-82
2022/01/24 03:35:48;;;;;;;23.88;21.90;;;;;;;;;;5135403;28;20185;-82
2022/01/24 03:38:15;;;;;;;23.87;22.27;;;;;;;;;;5134651;28;20208;-82
2022/01/24 03:40:43;;;;;;;24.13;22.52;;;;;;;;;;5134984;28;20891;-82
2022/01/24 03:43:10;;;;;;;23.20;21.70;;;;;;;;;;5134803;28;20260;-82
2022/01/24 03:45:43;;;;;;;22.23;20.75;;;;;;;;;;5134332;28;21007;-82
2022/01/24 03:48:23;;;;;;;23.25;21.58;;;;;;;;;;5134446;28;20246;-81
2022/01/24 03:50:50;;;;;;;23.05;21.63;;;;;;;;;;5134524;28;20234;-83
2022/01/24 03:53:17;;;;;;;22.88;21.48;;;;;;;;;;5115544;28;20204;-82
2022/01/24 03:55:45;;;;;;;22.95;21.52;;;;;;;;;;5134144;28;20193;-82
2022/01/24 03:58:12;;;;;;;23.70;22.17;;;;;;;;;;5135467;28;20188;-82
2022/01/24 04:00:41;;;;;;;24.60;23.00;;;;;;;;;;5133671;28;20200;-82
2022/01/24 04:03:09;;;;;;;24.42;22.83;;;;;;;;;;5133998;28;20207;-82
2022/01/24 04:05:36;;;;;;;26.75;24.85;;;;;;;;;;5133712;28;20605;-82
2022/01/24 04:08:03;;;;;;;26.65;24.73;;;;;;;;;;5133412;28;20591;-84
2022/01/24 04:10:39;;;;;;;26.73;24.93;;;;;;;;;;5134257;27;20207;-82
2022/01/24 04:13:19;;;;;;;22.92;21.42;;;;;;;;;;5137650;27;20449;-82
2022/01/24 04:15:59;;;;;;;24.50;22.70;;;;;;;;;;5137235;27;20257;-82
2022/01/24 04:18:47;;;;;;;24.00;22.50;;;;;;;;;;5137678;27;20285;-82
2022/01/24 04:21:20;;;;;;;23.33;21.83;;;;;;;;;;5139882;27;20233;-82
2022/01/24 04:23:52;;;;;;;23.23;21.63;;;;;;;;;;5146774;27;20194;-82
2022/01/24 04:26:19;;;;;;;24.70;22.90;;;;;;;;;;5141012;27;20219;-82
2022/01/24 04:28:46;;;;;;;27.98;25.63;;;;;;;;;;5137577;27;20201;-82
2022/01/24 04:31:15;;;;;;;23.85;22.27;;;;;;;;;;5142786;27;20224;-82
2022/01/24 04:33:43;;;;;;;22.45;21.02;;;;;;;;;;5146053;27;20239;-82
2022/01/24 04:36:10;;;;;;;21.85;20.48;;;;;;;;;;5138235;27;20197;-82
2022/01/24 04:38:38;;;;;;;20.92;19.73;;;;;;;;;;5137739;27;20191;-82
2022/01/24 04:41:14;;;;;;;20.92;19.80;;;;;;;;;;5138200;27;20188;-82
2022/01/24 04:43:53;;;;;;;20.55;19.45;;;;;;;;;;5137784;27;20190;-82
2022/01/24 04:46:45;;;;;;;22.08;20.58;;;;;;;;;;5138107;27;20199;-81
2022/01/24 04:52:12;;;;;;;22.13;20.77;;;;;;;;;;5137186;27;20555;-82
2022/01/24 04:54:42;;;;;;;23.92;22.33;;;;;;;;;;5138131;27;20189;-82
2022/01/24 04:57:10;;;;;;;24.70;23.17;;;;;;;;;;5137750;27;20221;-82
2022/01/24 04:59:38;;;;;;;24.33;22.50;;;;;;;;;;5137513;27;20542;-82
2022/01/24 05:02:07;;;;;;;24.30;22.60;;;;;;;;;;5138347;27;20182;-81
2022/01/24 05:04:36;;;;;;;23.25;21.75;;;;;;;;;;5137539;27;20464;-82
2022/01/24 05:07:03;;;;;;;24.33;22.93;;;;;;;;;;5137626;27;20220;-82
2022/01/24 05:09:36;;;;;;;27.20;25.33;;;;;;;;;;5137104;27;20408;-82
2022/01/24 05:12:08;;;;;;;26.35;24.65;;;;;;;;;;5137694;27;20436;-82
2022/01/24 05:25:40;;;;;;;22.83;21.42;;;;;;;;;;5140746;27;20199;-83
2022/01/24 05:28:07;;;;;;;20.88;19.67;;;;;;;;;;5146524;27;20591;-82
2022/01/24 05:30:34;;;;;;;23.85;22.27;;;;;;;;;;5136429;27;20217;-81
2022/01/24 05:33:03;;;;;;;22.83;21.30;;;;;;;;;;5137212;27;20522;-82
2022/01/24 05:35:31;;;;;;;21.77;20.48;;;;;;;;;;5137161;27;20243;-82
2022/01/24 05:37:58;;;;;;;22.90;21.50;;;;;;;;;;5136229;27;20186;-83
2022/01/24 05:40:25;;;;;;;22.25;20.90;;;;;;;;;;5137562;27;20198;-81
2022/01/24 05:42:53;;;;;;;22.73;21.43;;;;;;;;;;5144029;27;20533;-82
2022/01/24 05:45:21;;;;;;;21.80;20.58;;;;;;;;;;5140024;27;20891;-82
2022/01/24 05:47:48;;;;;;;21.93;20.70;;;;;;;;;;5140413;27;20190;-83
2022/01/24 05:50:17;;;;;;;21.58;20.15;;;;;;;;;;5139010;27;20914;-81
2022/01/24 05:52:44;;;;;;;21.60;20.40;;;;;;;;;;5138059;27;20192;-82
2022/01/24 05:55:12;;;;;;;21.10;19.90;;;;;;;;;;5139824;27;20429;-83
2022/01/24 05:57:39;;;;;;;22.58;21.08;;;;;;;;;;5136807;27;20946;-82
2022/01/24 06:00:08;;;;;;;22.23;20.85;;;;;;;;;;5136438;27;20261;-82
2022/01/24 06:02:35;;;;;;;20.48;19.38;;;;;;;;;;5137050;27;20193;-81
2022/01/24 06:05:02;;;;;;;21.40;20.20;;;;;;;;;;5138772;27;20225;-81
2022/01/24 06:07:31;;;;;;;20.90;19.75;;;;;;;;;;5136627;27;20516;-82
2022/01/24 06:09:59;;;;;;;20.40;19.30;;;;;;;;;;5136541;27;20182;-82
2022/01/24 06:12:26;;;;;;;20.70;19.60;;;;;;;;;;5136962;27;20245;-82
2022/01/24 06:14:54;;;;;;;20.93;19.73;;;;;;;;;;5136084;27;20198;-82
2022/01/24 06:17:21;;;;;;;20.73;19.55;;;;;;;;;;5135927;27;20486;-82
2022/01/24 06:19:49;;;;;;;20.75;19.65;;;;;;;;;;5118344;27;20196;-82
2022/01/24 06:22:16;;;;;;;21.95;20.63;;;;;;;;;;5137335;27;20299;-82
2022/01/24 06:24:46;;;;;;;21.20;20.02;;;;;;;;;;5136258;27;20189;-82
2022/01/24 06:27:14;;;;;;;21.20;20.00;;;;;;;;;;5135435;27;20237;-82
2022/01/24 06:29:41;;;;;;;21.40;20.30;;;;;;;;;;5135124;27;20191;-82
2022/01/24 06:32:11;;;;;;;20.88;19.77;;;;;;;;;;5140972;27;20222;-82
2022/01/24 06:34:39;;;;;;;22.13;20.92;;;;;;;;;;5136719;27;20203;-82
2022/01/24 06:37:07;;;;;;;21.65;20.45;;;;;;;;;;5141203;27;20249;-82
2022/01/24 06:39:38;;;;;;;21.88;20.58;;;;;;;;;;5144264;27;20194;-82
2022/01/24 06:42:23;;;;;;;22.13;20.83;;;;;;;;;;5139278;27;20234;-83
2022/01/24 06:44:53;;;;;;;22.38;21.10;;;;;;;;;;5137895;27;20188;-82
2022/01/24 06:47:21;;;;;;;22.33;21.13;;;;;;;;;;5140607;27;20260;-82
2022/01/24 06:49:48;;;;;;;21.65;20.45;;;;;;;;;;5139796;27;20633;-82
2022/01/24 06:52:16;;;;;;;23.50;22.20;;;;;;;;;;5136216;27;20240;-82
2022/01/24 06:54:43;;;;;;;23.48;22.15;;;;;;;;;;5135523;27;20206;-83
2022/01/24 06:57:12;;;;;;;23.20;21.90;;;;;;;;;;5135117;27;20267;-81
2022/01/24 06:59:39;;;;;;;22.50;21.23;;;;;;;;;;5134321;27;20226;-82
2022/01/24 07:02:08;;;;;;;24.13;22.73;;;;;;;;;;5116513;27;20195;-82
2022/01/24 07:04:37;;;;;;;24.38;22.95;;;;;;;;;;5134520;27;20219;-82
2022/01/24 07:07:05;;;;;;;24.75;23.15;;;;;;;;;;5134272;27;20625;-82
2022/01/24 07:09:33;;;;;;;23.55;22.15;;;;;;;;;;5134420;27;20199;-82
2022/01/24 07:12:00;;;;;;;23.88;22.48;;;;;;;;;;5134636;27;20227;-82
2022/01/24 07:14:27;;;;;;;24.93;23.40;;;;;;;;;;5134176;27;20191;-82
2022/01/24 07:17:09;;;;;;;24.33;22.83;;;;;;;;;;5133766;27;20960;-81
2022/01/24 07:19:39;;;;;;;23.83;22.38;;;;;;;;;;5134456;27;20731;-82
2022/01/24 07:22:07;;;;;;;23.45;22.00;;;;;;;;;;5134207;27;20650;-82
2022/01/24 07:24:34;;;;;;;22.23;20.92;;;;;;;;;;5134388;27;20182;-82
2022/01/24 07:27:02;;;;;;;23.00;21.60;;;;;;;;;;5134484;27;20186;-84
2022/01/24 07:29:29;;;;;;;23.40;22.10;;;;;;;;;;5134189;27;20649;-82
2022/01/24 07:31:57;;;;;;;23.45;22.05;;;;;;;;;;5133965;27;20344;-81
2022/01/24 07:34:24;;;;;;;23.30;21.90;;;;;;;;;;5133924;27;20215;-82
2022/01/24 07:36:55;;;;;;;24.00;22.60;;;;;;;;;;5133931;28;20199;-81
2022/01/24 07:39:22;;;;;;;23.13;21.73;;;;;;;;;;5134074;28;20671;-82
2022/01/24 07:41:51;;;;;;;22.52;21.23;;;;;;;;;;5134015;28;20189;-81
2022/01/24 07:44:20;;;;;;;24.13;22.52;;;;;;;;;;5134208;28;20187;-82
2022/01/24 07:46:47;;;;;;;24.98;23.38;;;;;;;;;;5136782;27;20223;-81
2022/01/24 07:49:15;;;;;;;23.98;22.55;;;;;;;;;;5138438;27;20192;-82
2022/01/24 07:51:42;;;;;;;24.13;22.73;;;;;;;;;;5138221;27;20211;-82
2022/01/24 07:54:11;;;;;;;24.92;23.35;;;;;;;;;;5138347;27;20192;-82
2022/01/24 07:56:39;;;;;;;25.25;23.65;;;;;;;;;;5138627;27;20516;-82
2022/01/24 07:59:06;;;;;;;25.17;23.58;;;;;;;;;;5140182;27;20203;-81
2022/01/24 08:01:34;;;;;;;26.58;24.77;;;;;;;;;;5141635;27;20192;-83
2022/01/24 08:04:01;;;;;;;25.00;23.50;;;;;;;;;;5148749;27;20193;-83
2022/01/24 08:06:28;;;;;;;25.58;23.98;;;;;;;;;;5138080;27;20224;-83
2022/01/24 08:08:56;;;;;;;24.02;22.52;;;;;;;;;;5138619;27;20204;-82
2022/01/24 08:11:25;;;;;;;23.85;22.55;;;;;;;;;;5138051;27;20679;-83
2022/01/24 08:13:54;;;;;;;24.20;22.63;;;;;;;;;;5137782;27;20189;-82
2022/01/24 08:16:22;;;;;;;24.27;22.88;;;;;;;;;;5137001;27;20228;-82
2022/01/24 08:18:51;;;;;;;23.25;21.95;;;;;;;;;;5137674;27;20185;-83
2022/01/24 08:21:19;;;;;;;23.70;22.20;;;;;;;;;;5137858;27;20233;-82
2022/01/24 08:23:46;;;;;;;22.77;21.48;;;;;;;;;;5137491;27;20192;-82
2022/01/24 08:26:14;;;;;;;23.70;22.30;;;;;;;;;;5137604;27;20577;-83
2022/01/24 08:28:43;;;;;;;22.83;21.52;;;;;;;;;;5137579;27;20193;-82
2022/01/24 08:31:10;;;;;;;23.88;22.38;;;;;;;;;;5137636;27;20222;-82
2022/01/24 08:33:37;;;;;;;23.20;21.90;;;;;;;;;;5137796;27;20188;-82
2022/01/24 08:36:05;;;;;;;23.63;22.20;;;;;;;;;;5137305;27;20551;-82
2022/01/24 08:38:35;;;;;;;23.85;22.45;;;;;;;;;;5137682;27;20215;-83
2022/01/24 08:41:08;;;;;;;24.05;22.67;;;;;;;;;;5138484;27;20216;-82
2022/01/24 08:43:52;;;;;;;24.30;22.85;;;;;;;;;;5137331;27;20198;-82
2022/01/24 08:46:21;;;;;;;24.58;22.98;;;;;;;;;;5137383;27;20258;-83
2022/01/24 08:48:49;;;;;;;24.95;23.45;;;;;;;;;;5136784;27;20571;-83
2022/01/24 08:51:16;;;;;;;24.10;22.70;;;;;;;;;;5137224;27;20254;-83
2022/01/24 08:53:44;;;;;;;25.38;23.77;;;;;;;;;;5137363;27;20205;-83
2022/01/24 08:56:11;;;;;;;24.08;22.65;;;;;;;;;;5136977;27;20191;-83
2022/01/24 08:58:39;;;;;;;23.70;22.40;;;;;;;;;;5136022;27;20636;-83
2022/01/24 09:01:07;;;;;;;24.88;23.25;;;;;;;;;;5137166;27;20206;-83
2022/01/24 09:03:41;;;;;;;24.27;22.88;;;;;;;;;;5137075;27;20197;-82
2022/01/24 09:06:09;;;;;;;23.88;22.52;;;;;;;;;;5137170;27;20224;-89
2022/01/24 09:08:37;;;;;;;23.80;22.40;;;;;;;;;;5137443;27;20207;-84
2022/01/24 09:11:05;;;;;;;24.25;22.85;;;;;;;;;;5136631;27;20183;-83
2022/01/24 09:13:32;;;;;;;23.63;22.23;;;;;;;;;;5136986;27;20208;-84
2022/01/24 09:16:00;;;;;;;24.53;23.03;;;;;;;;;;5136415;27;20727;-83
2022/01/24 09:18:28;;;;;;;25.42;23.92;;;;;;;;;;5118066;27;20499;-82
2022/01/24 09:20:57;;;;;;;24.55;23.15;;;;;;;;;;5136624;27;20215;-83
2022/01/24 09:23:24;;;;;;;25.15;23.55;;;;;;;;;;5136738;27;20619;-83
2022/01/24 09:25:52;;;;;;;24.85;23.42;;;;;;;;;;5136806;27;20192;-83
2022/01/24 09:28:19;;;;;;;24.27;22.88;;;;;;;;;;5136678;27;20615;-82
2022/01/24 09:30:47;;;;;;;24.40;22.90;;;;;;;;;;5136823;27;20193;-83
2022/01/24 09:33:14;;;;;;;24.20;22.70;;;;;;;;;;5136707;27;20211;-83
2022/01/24 09:35:42;;;;;;;27.70;25.75;;;;;;;;;;5136991;27;20475;-83
2022/01/24 09:38:11;;;;;;;25.73;24.03;;;;;;;;;;5136309;27;20653;-84
2022/01/24 09:40:38;;;;;;;26.80;25.10;;;;;;;;;;5136542;27;20505;-83
2022/01/24 09:43:06;;;;;;;27.00;25.15;;;;;;;;;;5136535;27;20632;-83
2022/01/24 09:45:33;;;;;;;25.58;23.85;;;;;;;;;;5136448;27;20595;-83
2022/01/24 09:48:02;;;;;;;24.87;23.43;;;;;;;;;;5136233;27;20219;-83
2022/01/24 09:50:29;;;;;;;25.93;24.33;;;;;;;;;;5136680;27;20410;-84
2022/01/24 09:52:56;;;;;;;24.23;22.80;;;;;;;;;;5135807;27;20468;-84
2022/01/24 09:55:26;;;;;;;24.63;23.20;;;;;;;;;;5136234;27;20464;-83
2022/01/24 09:57:53;;;;;;;24.80;23.20;;;;;;;;;;5136346;27;20189;-83
2022/01/24 10:00:22;;;;;;;24.02;22.65;;;;;;;;;;5136469;27;20200;-84
2022/01/24 10:02:50;;;;;;;24.63;23.17;;;;;;;;;;5136121;27;20196;-83
2022/01/24 10:05:19;;;;;;;24.90;23.40;;;;;;;;;;5135707;27;20230;-83
2022/01/24 10:07:54;;;;;;;24.00;22.50;;;;;;;;;;5135893;27;20196;-83
2022/01/24 10:10:29;;;;;;;24.30;22.80;;;;;;;;;;5135551;27;20184;-83
2022/01/24 10:18:29;;;;;;;25.58;23.90;;;;;;;;;;5135612;27;20199;-83
2022/01/24 10:20:56;;;;;;;25.83;24.20;;;;;;;;;;5135373;27;20298;-83
2022/01/24 10:23:26;;;;;;;24.20;22.90;;;;;;;;;;5135652;27;20196;-83
2022/01/24 10:25:59;;;;;;;25.85;24.27;;;;;;;;;;5135903;27;20224;-84
2022/01/24 10:28:31;;;;;;;24.63;23.13;;;;;;;;;;5135439;27;20237;-83
2022/01/24 10:31:06;;;;;;;24.33;22.83;;;;;;;;;;5117526;27;20641;-84
2022/01/24 10:33:50;;;;;;;24.83;23.37;;;;;;;;;;5135718;27;20211;-84
2022/01/24 10:36:27;;;;;;;27.52;25.25;;;;;;;;;;5135101;27;20952;-84
2022/01/24 10:39:07;;;;;;;26.27;24.58;;;;;;;;;;5135477;27;20204;-84
2022/01/24 10:41:53;;;;;;;28.40;26.08;;;;;;;;;;5135563;27;20188;-83
2022/01/24 10:44:28;;;;;;;25.55;24.02;;;;;;;;;;5135292;27;20232;-83
2022/01/24 10:47:10;;;;;;;25.33;23.83;;;;;;;;;;5134875;27;20200;-83
2022/01/24 10:49:38;;;;;;;25.75;24.25;;;;;;;;;;5135333;27;20566;-84
2022/01/24 10:52:10;;;;;;;25.10;23.60;;;;;;;;;;5135177;27;20273;-83
2022/01/24 10:54:37;;;;;;;23.50;22.20;;;;;;;;;;5135083;27;20293;-83
2022/01/24 10:57:06;;;;;;;23.77;22.48;;;;;;;;;;5138741;27;20195;-84
2022/01/24 10:59:36;;;;;;;25.20;23.80;;;;;;;;;;5138017;27;20294;-83
2022/01/24 11:02:04;;;;;;;24.67;23.17;;;;;;;;;;5136506;27;20249;-83
2022/01/24 11:04:33;;;;;;;24.60;23.20;;;;;;;;;;5120373;27;20282;-83
2022/01/24 11:07:02;;;;;;;25.25;23.83;;;;;;;;;;5136481;27;20690;-83
2022/01/24 11:09:30;;;;;;;24.08;22.60;;;;;;;;;;5136517;27;20183;-83
2022/01/24 11:11:59;;;;;;;24.13;22.73;;;;;;;;;;5137823;27;20220;-84
2022/01/24 11:14:28;;;;;;;24.48;22.75;;;;;;;;;;5135698;27;20683;-83
2022/01/24 11:17:03;;;;;;;24.80;23.30;;;;;;;;;;5136850;27;20273;-83
2022/01/24 11:19:46;;;;;;;25.40;23.90;;;;;;;;;;5138542;27;20962;-83
2022/01/24 11:22:20;;;;;;;25.07;23.57;;;;;;;;;;5138283;27;20231;-83
2022/01/24 11:24:53;;;;;;;25.70;24.20;;;;;;;;;;5140903;27;20440;-84
2022/01/24 11:27:21;;;;;;;24.55;23.15;;;;;;;;;;5144714;27;20243;-83
2022/01/24 11:29:51;;;;;;;24.65;23.15;;;;;;;;;;5143581;27;20202;-84
2022/01/24 11:32:20;;;;;;;24.90;23.40;;;;;;;;;;5135296;27;20340;-84
2022/01/24 11:34:50;;;;;;;24.25;22.75;;;;;;;;;;5138558;27;20474;-84
2022/01/24 11:37:33;;;;;;;25.27;23.77;;;;;;;;;;5136502;28;20199;-83
2022/01/24 11:40:00;;;;;;;24.60;23.13;;;;;;;;;;5113992;28;20643;-84
2022/01/24 11:42:30;;;;;;;24.85;23.35;;;;;;;;;;5115651;28;20188;-86
2022/01/24 11:45:04;;;;;;;26.25;24.65;;;;;;;;;;5114683;28;20662;-84
2022/01/24 11:47:32;;;;;;;27.42;25.73;;;;;;;;;;5115611;28;20189;-84
2022/01/24 11:49:59;;;;;;;25.75;24.05;;;;;;;;;;5115627;28;20223;-84
2022/01/24 11:52:32;;;;;;;25.55;24.05;;;;;;;;;;5115473;28;20215;-84
2022/01/24 11:55:13;;;;;;;24.35;22.95;;;;;;;;;;5115792;28;20326;-84
2022/01/24 11:57:41;;;;;;;25.25;23.75;;;;;;;;;;5114583;28;20222;-84
2022/01/24 12:00:18;;;;;;;25.88;24.27;;;;;;;;;;5115282;28;20190;-84
2022/01/24 12:02:47;;;;;;;24.90;23.30;;;;;;;;;;5114595;28;20205;-83
2022/01/24 12:05:15;;;;;;;24.80;23.30;;;;;;;;;;5114176;28;20701;-83
2022/01/24 12:07:44;;;;;;;24.67;23.27;;;;;;;;;;5114119;28;20182;-84
2022/01/24 12:10:36;;;;;;;25.50;23.90;;;;;;;;;;5114506;28;20454;-83
2022/01/24 12:13:05;;;;;;;24.52;22.83;;;;;;;;;;5095013;28;20501;-83
2022/01/24 12:15:57;;;;;;;24.77;23.27;;;;;;;;;;5115953;28;20193;-83
2022/01/24 12:18:44;;;;;;;24.70;23.20;;;;;;;;;;5119551;28;20200;-84
2022/01/24 12:21:13;;;;;;;25.77;24.17;;;;;;;;;;5120098;28;20635;-85
2022/01/24 12:23:42;;;;;;;28.63;26.33;;;;;;;;;;5138564;28;20909;-84
2022/01/24 12:26:10;;;;;;;25.50;23.90;;;;;;;;;;5135475;28;20186;-84
2022/01/24 12:28:48;;;;;;;24.67;23.10;;;;;;;;;;5138170;28;20247;-84
2022/01/24 12:31:21;;;;;;;28.40;26.50;;;;;;;;;;5139122;27;20186;-83
2022/01/24 12:34:08;;;;;;;29.35;27.15;;;;;;;;;;5141318;27;20453;-84
2022/01/24 12:36:59;;;;;;;29.02;26.83;;;;;;;;;;5142261;27;20215;-83
2022/01/24 12:39:33;;;;;;;31.73;29.53;;;;;;;;;;5143252;27;20641;-84
2022/01/24 12:42:07;;;;;;;30.90;28.48;;;;;;;;;;5146884;27;20443;-84
2022/01/24 12:47:30;;;;;;;25.23;23.73;;;;;;;;;;5144736;27;20250;-83
2022/01/24 12:49:58;;;;;;;58.35;46.38;;;;;;;;;;5144462;27;20523;-84
2022/01/24 12:52:27;;;;;;;45.92;40.97;;;;;;;;;;5140487;27;20376;-84
2022/01/24 12:54:59;;;;;;;27.58;25.58;;;;;;;;;;5143569;27;20199;-83
2022/01/24 12:57:32;;;;;;;27.75;25.83;;;;;;;;;;5143623;27;20199;-84
2022/01/24 13:00:02;;;;;;;24.73;23.33;;;;;;;;;;5148323;27;20627;-84
2022/01/24 13:02:32;;;;;;;23.95;22.42;;;;;;;;;;5551781;22;20230;-84
2022/01/24 13:05:05;;;;;;;23.25;21.95;;;;;;;;;;5081533;28;20229;-84
2022/01/24 13:07:32;;;;;;;24.80;22.65;;;;;;;;;;5078727;28;20184;-85
2022/01/24 13:10:06;;;;;;;24.35;22.70;;;;;;;;;;5081075;28;20194;-85
2022/01/24 13:12:33;;;;;;;24.25;22.85;;;;;;;;;;5085368;28;20218;-85
2022/01/24 13:15:04;;;;;;;23.88;22.48;;;;;;;;;;5075048;28;20194;-84
2022/01/24 13:23:22;;;;;;;30.25;27.98;;;;;;;;;;5018861;28;20667;-90
2022/01/24 13:25:49;;;;;;;32.35;29.80;;;;;;;;;;5034025;28;20215;-84
2022/01/24 13:28:19;;;;;;;32.58;30.17;;;;;;;;;;5045211;28;20189;-85
2022/01/24 13:30:57;;;;;;;27.30;25.50;;;;;;;;;;5047160;28;20204;-84
2022/01/24 13:33:26;;;;;;;25.57;23.63;;;;;;;;;;5042429;28;20284;-84
2022/01/24 13:35:55;;;;;;;24.38;22.98;;;;;;;;;;5043811;28;20853;-85
2022/01/24 13:38:25;;;;;;;26.55;24.85;;;;;;;;;;5041265;28;20207;-85
2022/01/24 13:40:54;;;;;;;32.30;29.80;;;;;;;;;;5039670;28;20203;-84
2022/01/24 13:43:33;;;;;;;42.58;38.78;;;;;;;;;;5012710;28;20205;-84
2022/01/24 13:46:01;;;;;;;25.45;23.85;;;;;;;;;;5007713;28;20212;-84
2022/01/24 13:48:30;;;;;;;24.38;22.88;;;;;;;;;;5016349;28;20203;-84
2022/01/24 13:50:58;;;;;;;24.55;23.05;;;;;;;;;;5018966;28;20215;-84
2022/01/24 13:53:33;;;;;;;24.90;23.30;;;;;;;;;;5024015;28;20227;-85
2022/01/24 13:56:02;;;;;;;29.90;27.80;;;;;;;;;;5048015;28;20205;-82
2022/01/24 13:58:30;;;;;;;25.83;24.13;;;;;;;;;;5091215;28;20456;-84
2022/01/24 14:00:58;;;;;;;24.55;23.05;;;;;;;;;;5080023;28;20657;-85
2022/01/24 14:03:25;;;;;;;25.15;23.55;;;;;;;;;;5078530;28;20242;-83
2022/01/24 14:06:07;;;;;;;26.13;24.52;;;;;;;;;;5077805;28;20196;-84
2022/01/24 14:08:36;;;;;;;25.45;23.83;;;;;;;;;;5077412;28;20198;-84
2022/01/24 14:11:12;;;;;;;24.30;22.80;;;;;;;;;;5085581;28;20670;-84
2022/01/24 14:13:46;;;;;;;27.05;25.25;;;;;;;;;;5077723;28;20217;-84
2022/01/24 14:16:23;;;;;;;25.75;24.15;;;;;;;;;;5077477;28;20202;-84
2022/01/24 14:19:00;;;;;;;25.52;23.83;;;;;;;;;;5061007;28;20271;-83
2022/01/24 14:21:28;;;;;;;25.60;23.90;;;;;;;;;;5071431;28;20193;-83
2022/01/24 14:24:00;;;;;;;27.17;25.25;;;;;;;;;;5076884;28;20270;-83
2022/01/24 14:26:29;;;;;;;26.33;24.52;;;;;;;;;;5073886;28;20202;-84
2022/01/24 14:29:07;;;;;;;25.02;23.33;;;;;;;;;;5075296;28;20199;-83
2022/01/24 14:31:34;;;;;;;26.05;24.45;;;;;;;;;;5073775;28;20201;-83
2022/01/24 14:34:03;;;;;;;26.23;24.33;;;;;;;;;;5073834;28;20227;-83
2022/01/24 14:36:30;;;;;;;26.25;24.52;;;;;;;;;;5076340;28;20221;-83
2022/01/24 14:39:02;;;;;;;25.52;23.58;;;;;;;;;;5075611;28;20639;-84
2022/01/24 14:41:36;;;;;;;26.73;25.02;;;;;;;;;;5075110;28;20193;-84
2022/01/24 14:46:54;;;;;;;24.58;23.08;;;;;;;;;;5073173;28;20208;-84
2022/01/24 14:49:24;;;;;;;24.98;23.38;;;;;;;;;;5078103;28;20566;-84
2022/01/24 14:51:53;;;;;;;26.20;24.50;;;;;;;;;;5076700;28;20643;-84
2022/01/24 14:54:23;;;;;;;25.75;24.00;;;;;;;;;;5087323;28;20682;-84
2022/01/24 14:56:58;;;;;;;25.52;23.92;;;;;;;;;;5090843;28;20190;-84
2022/01/24 15:02:29;;;;;;;26.77;24.98;;;;;;;;;;5046175;28;20217;-84
2022/01/24 15:04:57;;;;;;;26.50;24.80;;;;;;;;;;5007051;28;20227;-85
2022/01/24 15:07:25;;;;;;;26.73;24.83;;;;;;;;;;5019922;28;20892;-85
2022/01/24 15:09:54;;;;;;;27.90;25.77;;;;;;;;;;5025877;28;20264;-84
2022/01/24 15:12:21;;;;;;;28.30;25.70;;;;;;;;;;5017560;28;20207;-85
2022/01/24 15:14:49;;;;;;;27.63;25.63;;;;;;;;;;5012806;28;20685;-84
2022/01/24 15:17:40;;;;;;;27.25;25.33;;;;;;;;;;5013652;28;20690;-85
2022/01/24 15:25:43;;;;;;;28.83;26.83;;;;;;;;;;5021567;28;20202;-85
2022/01/24 15:28:12;;;;;;;29.35;27.35;;;;;;;;;;5039546;28;20199;-84
2022/01/24 15:30:40;;;;;;;29.75;27.55;;;;;;;;;;5040060;28;20204;-83
2022/01/24 15:33:11;;;;;;;30.92;28.83;;;;;;;;;;5040062;28;20247;-82
2022/01/24 15:35:40;;;;;;;31.25;29.13;;;;;;;;;;5037118;28;20566;-83
2022/01/24 15:38:07;;;;;;;30.65;28.55;;;;;;;;;;5037874;28;20232;-83
2022/01/24 15:40:35;;;;;;;29.85;27.73;;;;;;;;;;5037941;28;20198;-83
2022/01/24 15:43:10;;;;;;;29.63;27.63;;;;;;;;;;5038215;28;20206;-83
2022/01/24 15:45:44;;;;;;;29.60;27.48;;;;;;;;;;5047538;28;20200;-84
2022/01/24 15:48:12;;;;;;;29.10;27.08;;;;;;;;;;5043386;28;20203;-84
2022/01/24 15:50:41;;;;;;;29.38;27.38;;;;;;;;;;5045161;28;20211;-83
2022/01/24 15:53:16;;;;;;;28.98;26.92;;;;;;;;;;5049594;28;20194;-83
2022/01/24 15:56:13;;;;;;;29.15;27.15;;;;;;;;;;5050111;28;20243;-84
2022/01/24 15:58:43;;;;;;;29.00;26.95;;;;;;;;;;5048884;28;20749;-84
2022/01/24 16:01:11;;;;;;;29.17;27.02;;;;;;;;;;5045157;28;20204;-82
2022/01/24 16:03:44;;;;;;;28.70;26.80;;;;;;;;;;5065661;28;20234;-83
2022/01/24 16:06:14;;;;;;;30.27;27.98;;;;;;;;;;5082400;28;20210;-85
2022/01/24 16:08:41;;;;;;;29.00;26.65;;;;;;;;;;5084445;28;20223;-86
2022/01/24 16:11:09;;;;;;;30.30;28.05;;;;;;;;;;5076981;28;20221;-82